sensor_id;sensor_type;location;lat;lon;timestamp;temperature;humidity
47516;DHT22;33249;51.990;5.840;2024-01-15T00:01:43;1.40;99.90
47516;DHT22;33249;51.990;5.840;2024-01-15T00:04:10;1.40;99.90
47516;DHT22;33249;51.990;5.840;2024-01-15T00:06:36;1.30;99.90
47516;DHT22;33249;51.990;5.840;2024-01-15T00:09:02;1.40;99.90
47516;DHT22;33249;51.990;5.840;2024-01-15T00:11:28;1.30;99.90
47516;DHT22;33249;51.990;5.840;2024-01-15T00:13:54;1.40;99.90
47516;DHT22;33249;51.990;5.840;2024-01-15T00:16:19;1.30;99.90
47516;DHT22;33249;51.990;5.840;2024-01-15T00:18:45;1.40;99.90
47516;DHT22;33249;51.990;5.840;2024-01-15T00:21:11;1.30;99.90
47516;DHT22;33249;51.990;5.840;2024-01-15T00:23:39;1.30;99.90
47516;DHT22;33249;51.990;5.840;2024-01-15T00:26:05;1.30;99.90
47516;DHT22;33249;51.990;5.840;2024-01-15T00:28:31;1.30;99.90
47516;DHT22;33249;51.990;5.840;2024-01-15T00:30:57;1.20;99.90
47516;DHT22;33249;51.990;5.840;2024-01-15T00:33:23;1.20;99.90
47516;DHT22;33249;51.990;5.840;2024-01-15T00:35:49;1.20;99.90
47516;DHT22;33249;51.990;5.840;2024-01-15T00:38:15;1.20;99.90
47516;DHT22;33249;51.990;5.840;2024-01-15T00:40:41;1.10;99.90
47516;DHT22;33249;51.990;5.840;2024-01-15T00:43:07;1.10;99.90
47516;DHT22;33249;51.990;5.840;2024-01-15T00:45:35;1.10;99.90
47516;DHT22;33249;51.990;5.840;2024-01-15T00:48:01;1.00;99.90
47516;DHT22;33249;51.990;5.840;2024-01-15T00:50:27;1.00;99.90
47516;DHT22;33249;51.990;5.840;2024-01-15T00:52:56;1.00;99.90
47516;DHT22;33249;51.990;5.840;2024-01-15T00:55:22;1.00;99.90
47516;DHT22;33249;51.990;5.840;2024-01-15T00:57:50;1.00;99.90
47516;DHT22;33249;51.990;5.840;2024-01-15T01:00:16;1.00;99.90
47516;DHT22;33249;51.990;5.840;2024-01-15T01:02:42;1.00;99.90
47516;DHT22;33249;51.990;5.840;2024-01-15T01:05:08;1.00;99.90
47516;DHT22;33249;51.990;5.840;2024-01-15T01:07:34;0.90;99.90
47516;DHT22;33249;51.990;5.840;2024-01-15T01:10:00;0.90;99.90
47516;DHT22;33249;51.990;5.840;2024-01-15T01:12:26;0.90;99.90
47516;DHT22;33249;51.990;5.840;2024-01-15T01:14:52;0.90;99.90
47516;DHT22;33249;51.990;5.840;2024-01-15T01:17:18;1.00;99.90
47516;DHT22;33249;51.990;5.840;2024-01-15T01:19:44;0.90;99.90
47516;DHT22;33249;51.990;5.840;2024-01-15T01:22:10;0.90;99.90
47516;DHT22;33249;51.990;5.840;2024-01-15T01:24:35;0.90;99.90
47516;DHT22;33249;51.990;5.840;2024-01-15T01:27:01;0.90;99.90
47516;DHT22;33249;51.990;5.840;2024-01-15T01:29:27;0.90;99.90
47516;DHT22;33249;51.990;5.840;2024-01-15T01:31:53;0.80;99.90
47516;DHT22;33249;51.990;5.840;2024-01-15T01:34:22;0.80;99.90
47516;DHT22;33249;51.990;5.840;2024-01-15T01:36:48;0.80;99.90
47516;DHT22;33249;51.990;5.840;2024-01-15T01:39:14;0.80;99.90
47516;DHT22;33249;51.990;5.840;2024-01-15T01:41:40;0.80;99.90
47516;DHT22;33249;51.990;5.840;2024-01-15T01:44:06;0.70;99.90
47516;DHT22;33249;51.990;5.840;2024-01-15T01:46:32;0.70;99.90
47516;DHT22;33249;51.990;5.840;2024-01-15T01:48:59;0.70;99.90
47516;DHT22;33249;51.990;5.840;2024-01-15T01:51:30;0.80;99.90
47516;DHT22;33249;51.990;5.840;2024-01-15T01:54:02;0.80;99.90
47516;DHT22;33249;51.990;5.840;2024-01-15T01:56:31;0.80;99.90
47516;DHT22;33249;51.990;5.840;2024-01-15T01:58:57;0.70;99.90
47516;DHT22;33249;51.990;5.840;2024-01-15T02:01:23;0.70;99.90
47516;DHT22;33249;51.990;5.840;2024-01-15T02:03:52;0.80;99.90
47516;DHT22;33249;51.990;5.840;2024-01-15T02:06:18;0.80;99.90
47516;DHT22;33249;51.990;5.840;2024-01-15T02:08:47;0.80;99.90
47516;DHT22;33249;51.990;5.840;2024-01-15T02:11:15;0.80;99.90
47516;DHT22;33249;51.990;5.840;2024-01-15T02:13:44;0.80;99.90
47516;DHT22;33249;51.990;5.840;2024-01-15T02:16:18;0.80;99.90
47516;DHT22;33249;51.990;5.840;2024-01-15T02:18:46;0.80;99.90
47516;DHT22;33249;51.990;5.840;2024-01-15T02:21:20;0.70;99.90
47516;DHT22;33249;51.990;5.840;2024-01-15T02:23:52;0.70;99.90
47516;DHT22;33249;51.990;5.840;2024-01-15T02:26:25;0.80;99.90
47516;DHT22;33249;51.990;5.840;2024-01-15T02:28:56;0.80;99.90
47516;DHT22;33249;51.990;5.840;2024-01-15T02:31:29;0.70;99.90
47516;DHT22;33249;51.990;5.840;2024-01-15T02:33:55;0.70;99.90
47516;DHT22;33249;51.990;5.840;2024-01-15T02:36:23;0.70;99.90
47516;DHT22;33249;51.990;5.840;2024-01-15T02:38:52;0.70;99.90
47516;DHT22;33249;51.990;5.840;2024-01-15T02:41:29;0.70;99.90
47516;DHT22;33249;51.990;5.840;2024-01-15T02:43:55;0.80;99.90
47516;DHT22;33249;51.990;5.840;2024-01-15T02:46:24;0.90;99.90
47516;DHT22;33249;51.990;5.840;2024-01-15T02:48:50;0.90;99.90
47516;DHT22;33249;51.990;5.840;2024-01-15T02:51:18;0.90;99.90
47516;DHT22;33249;51.990;5.840;2024-01-15T02:53:44;1.00;99.90
47516;DHT22;33249;51.990;5.840;2024-01-15T02:56:16;1.00;99.90
47516;DHT22;33249;51.990;5.840;2024-01-15T02:58:45;1.00;99.90
47516;DHT22;33249;51.990;5.840;2024-01-15T03:01:21;1.00;99.90
47516;DHT22;33249;51.990;5.840;2024-01-15T03:03:52;1.10;99.90
47516;DHT22;33249;51.990;5.840;2024-01-15T03:06:20;1.00;99.90
47516;DHT22;33249;51.990;5.840;2024-01-15T03:08:54;1.00;99.90
47516;DHT22;33249;51.990;5.840;2024-01-15T03:11:28;1.00;99.90
47516;DHT22;33249;51.990;5.840;2024-01-15T03:14:05;1.00;99.90
47516;DHT22;33249;51.990;5.840;2024-01-15T03:16:42;1.00;99.90
47516;DHT22;33249;51.990;5.840;2024-01-15T03:19:10;0.80;99.90
47516;DHT22;33249;51.990;5.840;2024-01-15T03:21:43;0.80;99.90
47516;DHT22;33249;51.990;5.840;2024-01-15T03:24:09;0.80;99.90
47516;DHT22;33249;51.990;5.840;2024-01-15T03:26:41;0.70;99.90
47516;DHT22;33249;51.990;5.840;2024-01-15T03:29:09;0.80;99.90
47516;DHT22;33249;51.990;5.840;2024-01-15T03:31:44;0.80;99.90
47516;DHT22;33249;51.990;5.840;2024-01-15T03:34:31;0.80;99.90
47516;DHT22;33249;51.990;5.840;2024-01-15T03:37:05;0.80;99.90
47516;DHT22;33249;51.990;5.840;2024-01-15T03:39:36;0.80;99.90
47516;DHT22;33249;51.990;5.840;2024-01-15T03:42:06;0.80;99.90
47516;DHT22;33249;51.990;5.840;2024-01-15T03:44:35;0.70;99.90
47516;DHT22;33249;51.990;5.840;2024-01-15T03:47:06;0.70;99.90
47516;DHT22;33249;51.990;5.840;2024-01-15T03:49:32;0.70;99.90
47516;DHT22;33249;51.990;5.840;2024-01-15T03:52:12;0.70;99.90
47516;DHT22;33249;51.990;5.840;2024-01-15T03:54:41;0.70;99.90
47516;DHT22;33249;51.990;5.840;2024-01-15T03:57:15;0.60;99.90
47516;DHT22;33249;51.990;5.840;2024-01-15T03:59:43;0.70;99.90
47516;DHT22;33249;51.990;5.840;2024-01-15T04:02:13;0.70;99.90
47516;DHT22;33249;51.990;5.840;2024-01-15T04:04:47;0.70;99.90
47516;DHT22;33249;51.990;5.840;2024-01-15T04:07:13;0.70;99.90
47516;DHT22;33249;51.990;5.840;2024-01-15T04:09:41;0.70;99.90
47516;DHT22;33249;51.990;5.840;2024-01-15T04:12:10;0.70;99.90
47516;DHT22;33249;51.990;5.840;2024-01-15T04:14:41;0.70;99.90
47516;DHT22;33249;51.990;5.840;2024-01-15T04:17:14;0.70;99.90
47516;DHT22;33249;51.990;5.840;2024-01-15T04:19:53;0.70;99.90
47516;DHT22;33249;51.990;5.840;2024-01-15T04:22:44;0.70;99.90
47516;DHT22;33249;51.990;5.840;2024-01-15T04:25:18;0.60;99.90
47516;DHT22;33249;51.990;5.840;2024-01-15T04:27:44;0.70;99.90
47516;DHT22;33249;51.990;5.840;2024-01-15T04:30:19;0.70;99.90
47516;DHT22;33249;51.990;5.840;2024-01-15T04:32:49;0.70;99.90
47516;DHT22;33249;51.990;5.840;2024-01-15T04:35:21;0.70;99.90
47516;DHT22;33249;51.990;5.840;2024-01-15T04:37:50;0.80;99.90
47516;DHT22;33249;51.990;5.840;2024-01-15T04:40:21;0.80;99.90
47516;DHT22;33249;51.990;5.840;2024-01-15T04:42:59;0.70;99.90
47516;DHT22;33249;51.990;5.840;2024-01-15T04:45:31;0.70;99.90
47516;DHT22;33249;51.990;5.840;2024-01-15T04:48:06;0.70;99.90
47516;DHT22;33249;51.990;5.840;2024-01-15T04:50:32;0.70;99.90
47516;DHT22;33249;51.990;5.840;2024-01-15T04:53:04;0.70;99.90
47516;DHT22;33249;51.990;5.840;2024-01-15T04:55:35;0.70;99.90
47516;DHT22;33249;51.990;5.840;2024-01-15T04:58:22;0.70;99.90
47516;DHT22;33249;51.990;5.840;2024-01-15T05:00:52;0.70;99.90
47516;DHT22;33249;51.990;5.840;2024-01-15T05:03:24;0.70;99.90
47516;DHT22;33249;51.990;5.840;2024-01-15T05:05:53;0.70;99.90
47516;DHT22;33249;51.990;5.840;2024-01-15T05:08:22;0.60;99.90
47516;DHT22;33249;51.990;5.840;2024-01-15T05:10:48;0.60;99.90
47516;DHT22;33249;51.990;5.840;2024-01-15T05:13:23;0.70;99.90
47516;DHT22;33249;51.990;5.840;2024-01-15T05:15:52;0.70;99.90
47516;DHT22;33249;51.990;5.840;2024-01-15T05:18:20;0.70;99.90
47516;DHT22;33249;51.990;5.840;2024-01-15T05:20:46;0.70;99.90
47516;DHT22;33249;51.990;5.840;2024-01-15T05:23:20;0.70;99.90
47516;DHT22;33249;51.990;5.840;2024-01-15T05:25:49;0.70;99.90
47516;DHT22;33249;51.990;5.840;2024-01-15T05:28:21;0.70;99.90
47516;DHT22;33249;51.990;5.840;2024-01-15T05:31:01;0.70;99.90
47516;DHT22;33249;51.990;5.840;2024-01-15T05:33:33;0.60;99.90
47516;DHT22;33249;51.990;5.840;2024-01-15T05:36:07;0.80;99.90
47516;DHT22;33249;51.990;5.840;2024-01-15T05:38:35;0.70;99.90
47516;DHT22;33249;51.990;5.840;2024-01-15T05:41:08;0.80;99.90
47516;DHT22;33249;51.990;5.840;2024-01-15T05:43:43;0.80;99.90
47516;DHT22;33249;51.990;5.840;2024-01-15T05:46:09;0.80;99.90
47516;DHT22;33249;51.990;5.840;2024-01-15T05:48:36;0.90;99.90
47516;DHT22;33249;51.990;5.840;2024-01-15T05:51:05;0.80;99.90
47516;DHT22;33249;51.990;5.840;2024-01-15T05:53:31;0.90;99.90
47516;DHT22;33249;51.990;5.840;2024-01-15T05:56:06;0.90;99.90
47516;DHT22;33249;51.990;5.840;2024-01-15T05:58:42;0.90;99.90
47516;DHT22;33249;51.990;5.840;2024-01-15T06:01:13;0.90;99.90
47516;DHT22;33249;51.990;5.840;2024-01-15T06:03:41;0.90;99.90
47516;DHT22;33249;51.990;5.840;2024-01-15T06:06:09;1.00;99.90
47516;DHT22;33249;51.990;5.840;2024-01-15T06:08:56;1.00;99.90
47516;DHT22;33249;51.990;5.840;2024-01-15T06:11:31;1.00;99.90
47516;DHT22;33249;51.990;5.840;2024-01-15T06:14:06;1.00;99.90
47516;DHT22;33249;51.990;5.840;2024-01-15T06:16:40;1.00;99.90
47516;DHT22;33249;51.990;5.840;2024-01-15T06:19:12;1.00;99.90
47516;DHT22;33249;51.990;5.840;2024-01-15T06:21:42;1.00;99.90
47516;DHT22;33249;51.990;5.840;2024-01-15T06:24:11;1.00;99.90
47516;DHT22;33249;51.990;5.840;2024-01-15T06:26:41;1.00;99.90
47516;DHT22;33249;51.990;5.840;2024-01-15T06:29:07;1.00;99.90
47516;DHT22;33249;51.990;5.840;2024-01-15T06:31:41;1.00;99.90
47516;DHT22;33249;51.990;5.840;2024-01-15T06:34:15;1.00;99.90
47516;DHT22;33249;51.990;5.840;2024-01-15T06:36:43;1.00;99.90
47516;DHT22;33249;51.990;5.840;2024-01-15T06:39:10;1.00;99.90
47516;DHT22;33249;51.990;5.840;2024-01-15T06:41:38;1.10;99.90
47516;DHT22;33249;51.990;5.840;2024-01-15T06:44:09;1.00;99.90
47516;DHT22;33249;51.990;5.840;2024-01-15T06:46:46;0.90;99.90
47516;DHT22;33249;51.990;5.840;2024-01-15T06:49:28;0.90;99.90
47516;DHT22;33249;51.990;5.840;2024-01-15T06:52:03;0.80;99.90
47516;DHT22;33249;51.990;5.840;2024-01-15T06:54:34;0.80;99.90
47516;DHT22;33249;51.990;5.840;2024-01-15T06:57:08;0.80;99.90
47516;DHT22;33249;51.990;5.840;2024-01-15T06:59:37;0.80;99.90
47516;DHT22;33249;51.990;5.840;2024-01-15T07:02:05;0.80;99.90
47516;DHT22;33249;51.990;5.840;2024-01-15T07:04:35;0.90;99.90
47516;DHT22;33249;51.990;5.840;2024-01-15T07:07:03;0.90;99.90
47516;DHT22;33249;51.990;5.840;2024-01-15T07:09:30;0.80;99.90
47516;DHT22;33249;51.990;5.840;2024-01-15T07:11:56;0.90;99.90
47516;DHT22;33249;51.990;5.840;2024-01-15T07:14:23;0.90;99.90
47516;DHT22;33249;51.990;5.840;2024-01-15T07:16:59;0.90;99.90
47516;DHT22;33249;51.990;5.840;2024-01-15T07:19:28;1.00;99.90
47516;DHT22;33249;51.990;5.840;2024-01-15T07:21:57;0.90;99.90
47516;DHT22;33249;51.990;5.840;2024-01-15T07:24:32;1.00;99.90
47516;DHT22;33249;51.990;5.840;2024-01-15T07:27:02;1.00;99.90
47516;DHT22;33249;51.990;5.840;2024-01-15T07:29:33;0.90;99.90
47516;DHT22;33249;51.990;5.840;2024-01-15T07:32:46;0.90;99.90
47516;DHT22;33249;51.990;5.840;2024-01-15T07:35:14;0.90;99.90
47516;DHT22;33249;51.990;5.840;2024-01-15T07:37:41;1.00;99.90
47516;DHT22;33249;51.990;5.840;2024-01-15T07:40:09;0.90;99.90
47516;DHT22;33249;51.990;5.840;2024-01-15T07:42:40;0.90;99.90
47516;DHT22;33249;51.990;5.840;2024-01-15T07:45:11;0.90;99.90
47516;DHT22;33249;51.990;5.840;2024-01-15T07:47:39;0.90;99.90
47516;DHT22;33249;51.990;5.840;2024-01-15T07:50:05;0.90;99.90
47516;DHT22;33249;51.990;5.840;2024-01-15T07:52:31;0.90;99.90
47516;DHT22;33249;51.990;5.840;2024-01-15T07:54:59;0.90;99.90
47516;DHT22;33249;51.990;5.840;2024-01-15T07:57:33;0.90;99.90
47516;DHT22;33249;51.990;5.840;2024-01-15T08:00:03;0.90;99.90
47516;DHT22;33249;51.990;5.840;2024-01-15T08:02:35;0.90;99.90
47516;DHT22;33249;51.990;5.840;2024-01-15T08:05:02;0.90;99.90
47516;DHT22;33249;51.990;5.840;2024-01-15T08:07:33;0.80;99.90
47516;DHT22;33249;51.990;5.840;2024-01-15T08:10:01;0.80;99.90
47516;DHT22;33249;51.990;5.840;2024-01-15T08:12:32;0.90;99.90
47516;DHT22;33249;51.990;5.840;2024-01-15T08:15:00;0.90;99.90
47516;DHT22;33249;51.990;5.840;2024-01-15T08:17:37;0.90;99.90
47516;DHT22;33249;51.990;5.840;2024-01-15T08:20:14;0.90;99.90
47516;DHT22;33249;51.990;5.840;2024-01-15T08:22:56;0.90;99.90
47516;DHT22;33249;51.990;5.840;2024-01-15T08:25:30;0.80;99.90
47516;DHT22;33249;51.990;5.840;2024-01-15T08:28:09;0.90;99.90
47516;DHT22;33249;51.990;5.840;2024-01-15T08:30:40;0.90;99.90
47516;DHT22;33249;51.990;5.840;2024-01-15T08:33:21;0.90;99.90
47516;DHT22;33249;51.990;5.840;2024-01-15T08:35:58;1.00;99.90
47516;DHT22;33249;51.990;5.840;2024-01-15T08:38:55;1.00;99.90
47516;DHT22;33249;51.990;5.840;2024-01-15T08:44:36;1.00;99.90
47516;DHT22;33249;51.990;5.840;2024-01-15T08:47:23;0.90;99.90
47516;DHT22;33249;51.990;5.840;2024-01-15T08:49:55;0.90;99.90
47516;DHT22;33249;51.990;5.840;2024-01-15T08:52:23;0.90;99.90
47516;DHT22;33249;51.990;5.840;2024-01-15T08:55:11;0.90;99.90
47516;DHT22;33249;51.990;5.840;2024-01-15T08:57:53;0.90;99.90
47516;DHT22;33249;51.990;5.840;2024-01-15T09:00:37;1.00;99.90
47516;DHT22;33249;51.990;5.840;2024-01-15T09:03:12;1.00;99.90
47516;DHT22;33249;51.990;5.840;2024-01-15T09:05:40;1.00;99.90
47516;DHT22;33249;51.990;5.840;2024-01-15T09:08:15;0.90;99.90
47516;DHT22;33249;51.990;5.840;2024-01-15T09:10:51;1.00;99.90
47516;DHT22;33249;51.990;5.840;2024-01-15T09:13:48;1.00;99.90
47516;DHT22;33249;51.990;5.840;2024-01-15T09:16:28;0.90;99.90
47516;DHT22;33249;51.990;5.840;2024-01-15T09:19:10;0.90;99.90
47516;DHT22;33249;51.990;5.840;2024-01-15T09:21:46;1.00;99.90
47516;DHT22;33249;51.990;5.840;2024-01-15T09:24:33;1.10;99.90
47516;DHT22;33249;51.990;5.840;2024-01-15T09:27:23;1.10;99.90
47516;DHT22;33249;51.990;5.840;2024-01-15T09:29:49;1.10;99.90
47516;DHT22;33249;51.990;5.840;2024-01-15T09:32:21;1.20;99.90
47516;DHT22;33249;51.990;5.840;2024-01-15T09:34:53;1.10;99.90
47516;DHT22;33249;51.990;5.840;2024-01-15T09:37:19;1.10;99.90
47516;DHT22;33249;51.990;5.840;2024-01-15T09:39:54;1.10;99.90
47516;DHT22;33249;51.990;5.840;2024-01-15T09:42:32;1.30;99.90
47516;DHT22;33249;51.990;5.840;2024-01-15T09:45:24;1.40;99.90
47516;DHT22;33249;51.990;5.840;2024-01-15T09:48:01;1.40;99.90
47516;DHT22;33249;51.990;5.840;2024-01-15T09:53:39;1.40;99.90
47516;DHT22;33249;51.990;5.840;2024-01-15T09:56:27;1.30;99.90
47516;DHT22;33249;51.990;5.840;2024-01-15T09:59:01;1.40;99.90
47516;DHT22;33249;51.990;5.840;2024-01-15T10:01:39;1.40;99.90
47516;DHT22;33249;51.990;5.840;2024-01-15T10:04:12;1.30;99.90
47516;DHT22;33249;51.990;5.840;2024-01-15T10:06:47;1.30;99.90
47516;DHT22;33249;51.990;5.840;2024-01-15T10:09:22;1.20;99.90
47516;DHT22;33249;51.990;5.840;2024-01-15T10:11:53;1.20;99.90
47516;DHT22;33249;51.990;5.840;2024-01-15T10:14:27;1.20;99.90
47516;DHT22;33249;51.990;5.840;2024-01-15T10:16:59;1.40;99.90
47516;DHT22;33249;51.990;5.840;2024-01-15T10:22:05;1.40;99.90
47516;DHT22;33249;51.990;5.840;2024-01-15T10:24:34;1.50;99.90
47516;DHT22;33249;51.990;5.840;2024-01-15T10:27:06;1.70;99.90
47516;DHT22;33249;51.990;5.840;2024-01-15T10:29:37;1.70;99.90
47516;DHT22;33249;51.990;5.840;2024-01-15T10:32:09;1.80;99.90
47516;DHT22;33249;51.990;5.840;2024-01-15T10:34:40;1.70;99.90
47516;DHT22;33249;51.990;5.840;2024-01-15T10:37:09;1.60;99.90
47516;DHT22;33249;51.990;5.840;2024-01-15T10:39:39;1.50;99.90
47516;DHT22;33249;51.990;5.840;2024-01-15T10:42:05;1.50;99.90
47516;DHT22;33249;51.990;5.840;2024-01-15T10:44:31;1.50;99.90
47516;DHT22;33249;51.990;5.840;2024-01-15T10:47:00;1.60;99.90
47516;DHT22;33249;51.990;5.840;2024-01-15T10:49:26;1.70;99.90
47516;DHT22;33249;51.990;5.840;2024-01-15T10:51:56;1.70;99.90
47516;DHT22;33249;51.990;5.840;2024-01-15T10:54:25;1.80;99.90
47516;DHT22;33249;51.990;5.840;2024-01-15T10:56:52;1.80;99.90
47516;DHT22;33249;51.990;5.840;2024-01-15T10:59:20;1.80;99.90
47516;DHT22;33249;51.990;5.840;2024-01-15T11:01:46;1.80;99.90
47516;DHT22;33249;51.990;5.840;2024-01-15T11:04:13;1.70;99.90
47516;DHT22;33249;51.990;5.840;2024-01-15T11:06:45;1.50;99.90
47516;DHT22;33249;51.990;5.840;2024-01-15T11:09:13;1.50;99.90
47516;DHT22;33249;51.990;5.840;2024-01-15T11:11:44;1.50;99.90
47516;DHT22;33249;51.990;5.840;2024-01-15T11:14:10;1.40;99.90
47516;DHT22;33249;51.990;5.840;2024-01-15T11:16:53;1.40;99.90
47516;DHT22;33249;51.990;5.840;2024-01-15T11:19:20;1.40;99.90
47516;DHT22;33249;51.990;5.840;2024-01-15T11:21:48;1.40;99.90
47516;DHT22;33249;51.990;5.840;2024-01-15T11:24:36;1.50;99.90
47516;DHT22;33249;51.990;5.840;2024-01-15T11:27:02;1.70;99.90
47516;DHT22;33249;51.990;5.840;2024-01-15T11:29:32;1.80;99.90
47516;DHT22;33249;51.990;5.840;2024-01-15T11:32:00;1.80;99.90
47516;DHT22;33249;51.990;5.840;2024-01-15T11:37:14;1.80;99.90
47516;DHT22;33249;51.990;5.840;2024-01-15T11:39:42;1.80;99.90
47516;DHT22;33249;51.990;5.840;2024-01-15T11:42:09;1.80;99.90
47516;DHT22;33249;51.990;5.840;2024-01-15T11:44:36;1.80;99.90
47516;DHT22;33249;51.990;5.840;2024-01-15T11:47:06;1.80;99.90
47516;DHT22;33249;51.990;5.840;2024-01-15T11:52:19;1.80;99.90
47516;DHT22;33249;51.990;5.840;2024-01-15T11:57:24;1.60;99.90
47516;DHT22;33249;51.990;5.840;2024-01-15T11:59:53;1.60;99.90
47516;DHT22;33249;51.990;5.840;2024-01-15T12:02:19;1.60;99.90
47516;DHT22;33249;51.990;5.840;2024-01-15T12:04:45;1.60;99.90
47516;DHT22;33249;51.990;5.840;2024-01-15T12:07:11;1.60;99.90
47516;DHT22;33249;51.990;5.840;2024-01-15T12:09:42;1.60;99.90
47516;DHT22;33249;51.990;5.840;2024-01-15T12:12:09;1.60;99.90
47516;DHT22;33249;51.990;5.840;2024-01-15T12:14:39;1.70;99.90
47516;DHT22;33249;51.990;5.840;2024-01-15T12:17:05;1.60;99.90
47516;DHT22;33249;51.990;5.840;2024-01-15T12:19:31;1.70;99.90
47516;DHT22;33249;51.990;5.840;2024-01-15T12:21:57;1.80;99.90
47516;DHT22;33249;51.990;5.840;2024-01-15T12:24:23;1.80;99.90
47516;DHT22;33249;51.990;5.840;2024-01-15T12:26:49;1.90;99.90
47516;DHT22;33249;51.990;5.840;2024-01-15T12:29:17;2.00;99.90
47516;DHT22;33249;51.990;5.840;2024-01-15T12:31:46;2.10;99.90
47516;DHT22;33249;51.990;5.840;2024-01-15T12:34:12;2.20;99.90
47516;DHT22;33249;51.990;5.840;2024-01-15T12:36:38;2.30;99.90
47516;DHT22;33249;51.990;5.840;2024-01-15T12:39:05;2.30;99.90
47516;DHT22;33249;51.990;5.840;2024-01-15T12:41:33;2.30;99.90
47516;DHT22;33249;51.990;5.840;2024-01-15T12:47:20;2.20;99.90
47516;DHT22;33249;51.990;5.840;2024-01-15T12:49:47;2.20;99.90
47516;DHT22;33249;51.990;5.840;2024-01-15T12:52:18;2.20;99.90
47516;DHT22;33249;51.990;5.840;2024-01-15T12:54:46;2.20;99.90
47516;DHT22;33249;51.990;5.840;2024-01-15T12:57:13;2.10;99.90
47516;DHT22;33249;51.990;5.840;2024-01-15T12:59:39;2.10;99.90
47516;DHT22;33249;51.990;5.840;2024-01-15T13:02:07;2.00;99.90
47516;DHT22;33249;51.990;5.840;2024-01-15T13:04:36;2.10;99.90
47516;DHT22;33249;51.990;5.840;2024-01-15T13:07:02;2.00;99.90
47516;DHT22;33249;51.990;5.840;2024-01-15T13:09:30;2.00;99.90
47516;DHT22;33249;51.990;5.840;2024-01-15T13:11:57;2.10;99.90
47516;DHT22;33249;51.990;5.840;2024-01-15T13:14:23;2.30;99.90
47516;DHT22;33249;51.990;5.840;2024-01-15T13:16:49;2.30;99.90
47516;DHT22;33249;51.990;5.840;2024-01-15T13:19:15;2.20;99.90
47516;DHT22;33249;51.990;5.840;2024-01-15T13:21:42;2.20;99.90
47516;DHT22;33249;51.990;5.840;2024-01-15T13:24:08;2.10;99.90
47516;DHT22;33249;51.990;5.840;2024-01-15T13:26:34;2.00;99.90
47516;DHT22;33249;51.990;5.840;2024-01-15T13:29:01;2.00;99.90
47516;DHT22;33249;51.990;5.840;2024-01-15T13:31:32;2.00;99.90
47516;DHT22;33249;51.990;5.840;2024-01-15T13:33:59;2.00;99.90
47516;DHT22;33249;51.990;5.840;2024-01-15T13:36:25;2.00;99.90
47516;DHT22;33249;51.990;5.840;2024-01-15T13:38:52;1.90;99.90
47516;DHT22;33249;51.990;5.840;2024-01-15T13:41:19;1.90;99.90
47516;DHT22;33249;51.990;5.840;2024-01-15T13:43:45;1.80;99.90
47516;DHT22;33249;51.990;5.840;2024-01-15T13:46:15;1.70;99.90
47516;DHT22;33249;51.990;5.840;2024-01-15T13:48:43;1.60;99.90
47516;DHT22;33249;51.990;5.840;2024-01-15T13:51:09;1.50;99.90
47516;DHT22;33249;51.990;5.840;2024-01-15T13:53:40;1.50;99.90
47516;DHT22;33249;51.990;5.840;2024-01-15T13:56:06;1.40;99.90
47516;DHT22;33249;51.990;5.840;2024-01-15T13:58:36;1.40;99.90
47516;DHT22;33249;51.990;5.840;2024-01-15T14:01:05;1.40;99.90
47516;DHT22;33249;51.990;5.840;2024-01-15T14:03:34;1.30;99.90
47516;DHT22;33249;51.990;5.840;2024-01-15T14:06:00;1.30;99.90
47516;DHT22;33249;51.990;5.840;2024-01-15T14:08:28;1.30;99.90
47516;DHT22;33249;51.990;5.840;2024-01-15T14:10:54;1.40;99.90
47516;DHT22;33249;51.990;5.840;2024-01-15T14:13:22;1.40;99.90
47516;DHT22;33249;51.990;5.840;2024-01-15T14:15:49;1.40;99.90
47516;DHT22;33249;51.990;5.840;2024-01-15T14:18:18;1.40;99.90
47516;DHT22;33249;51.990;5.840;2024-01-15T14:20:44;1.50;99.90
47516;DHT22;33249;51.990;5.840;2024-01-15T14:23:10;1.50;99.90
47516;DHT22;33249;51.990;5.840;2024-01-15T14:25:36;1.50;99.90
47516;DHT22;33249;51.990;5.840;2024-01-15T14:28:02;1.60;99.90
47516;DHT22;33249;51.990;5.840;2024-01-15T14:30:28;1.70;99.90
47516;DHT22;33249;51.990;5.840;2024-01-15T14:32:54;1.80;99.90
47516;DHT22;33249;51.990;5.840;2024-01-15T14:35:20;1.70;99.90
47516;DHT22;33249;51.990;5.840;2024-01-15T14:37:46;1.60;99.90
47516;DHT22;33249;51.990;5.840;2024-01-15T14:40:14;1.70;99.90
47516;DHT22;33249;51.990;5.840;2024-01-15T14:42:44;1.60;99.90
47516;DHT22;33249;51.990;5.840;2024-01-15T14:45:10;1.60;99.90
47516;DHT22;33249;51.990;5.840;2024-01-15T14:47:39;1.60;99.90
47516;DHT22;33249;51.990;5.840;2024-01-15T14:50:06;1.50;99.90
47516;DHT22;33249;51.990;5.840;2024-01-15T14:52:32;1.50;99.90
47516;DHT22;33249;51.990;5.840;2024-01-15T14:54:59;1.50;99.90
47516;DHT22;33249;51.990;5.840;2024-01-15T14:57:25;1.50;99.90
47516;DHT22;33249;51.990;5.840;2024-01-15T14:59:53;1.50;99.90
47516;DHT22;33249;51.990;5.840;2024-01-15T15:02:23;1.50;99.90
47516;DHT22;33249;51.990;5.840;2024-01-15T15:04:49;1.60;99.90
47516;DHT22;33249;51.990;5.840;2024-01-15T15:07:18;1.60;99.90
47516;DHT22;33249;51.990;5.840;2024-01-15T15:09:46;1.70;99.90
47516;DHT22;33249;51.990;5.840;2024-01-15T15:12:29;1.70;99.90
47516;DHT22;33249;51.990;5.840;2024-01-15T15:14:56;1.70;99.90
47516;DHT22;33249;51.990;5.840;2024-01-15T15:17:24;1.70;99.90
47516;DHT22;33249;51.990;5.840;2024-01-15T15:19:50;1.60;99.90
47516;DHT22;33249;51.990;5.840;2024-01-15T15:22:20;1.50;99.90
47516;DHT22;33249;51.990;5.840;2024-01-15T15:24:47;1.50;99.90
47516;DHT22;33249;51.990;5.840;2024-01-15T15:27:31;1.50;99.90
47516;DHT22;33249;51.990;5.840;2024-01-15T15:29:58;1.30;99.90
47516;DHT22;33249;51.990;5.840;2024-01-15T15:32:24;1.40;99.90
47516;DHT22;33249;51.990;5.840;2024-01-15T15:34:50;1.30;99.90
47516;DHT22;33249;51.990;5.840;2024-01-15T15:37:16;1.30;99.90
47516;DHT22;33249;51.990;5.840;2024-01-15T15:39:42;1.30;99.90
47516;DHT22;33249;51.990;5.840;2024-01-15T15:42:09;1.30;99.90
47516;DHT22;33249;51.990;5.840;2024-01-15T15:44:34;1.20;99.90
47516;DHT22;33249;51.990;5.840;2024-01-15T15:47:01;1.20;99.90
47516;DHT22;33249;51.990;5.840;2024-01-15T15:49:29;1.20;99.90
47516;DHT22;33249;51.990;5.840;2024-01-15T15:51:55;1.20;99.90
47516;DHT22;33249;51.990;5.840;2024-01-15T15:54:21;1.20;99.90
47516;DHT22;33249;51.990;5.840;2024-01-15T15:56:47;1.10;99.90
47516;DHT22;33249;51.990;5.840;2024-01-15T15:59:15;1.20;99.90
47516;DHT22;33249;51.990;5.840;2024-01-15T16:01:43;1.30;99.90
47516;DHT22;33249;51.990;5.840;2024-01-15T16:04:18;1.20;99.90
47516;DHT22;33249;51.990;5.840;2024-01-15T16:06:44;1.20;99.90
47516;DHT22;33249;51.990;5.840;2024-01-15T16:09:13;1.20;99.90
47516;DHT22;33249;51.990;5.840;2024-01-15T16:11:39;1.10;99.90
47516;DHT22;33249;51.990;5.840;2024-01-15T16:14:05;1.10;99.90
47516;DHT22;33249;51.990;5.840;2024-01-15T16:16:32;1.20;99.90
47516;DHT22;33249;51.990;5.840;2024-01-15T16:18:57;1.20;99.90
47516;DHT22;33249;51.990;5.840;2024-01-15T16:21:23;1.20;99.90
47516;DHT22;33249;51.990;5.840;2024-01-15T16:23:51;1.20;99.90